sensor_id;sensor_type;location;lat;lon;timestamp;P1;durP1;ratioP1;P2;durP2;ratioP2
15194;SDS011;7698;42.478;23.756;2022-08-25T00:01:36;13.75;;;10.30;;
15194;SDS011;7698;42.478;23.756;2022-08-25T00:04:05;10.77;;;8.98;;
15194;SDS011;7698;42.478;23.756;2022-08-25T00:06:34;21.42;;;9.10;;
15194;SDS011;7698;42.478;23.756;2022-08-25T00:09:02;13.10;;;8.70;;
15194;SDS011;7698;42.478;23.756;2022-08-25T00:11:30;14.63;;;9.15;;
15194;SDS011;7698;42.478;23.756;2022-08-25T00:14:03;11.13;;;9.20;;
15194;SDS011;7698;42.478;23.756;2022-08-25T00:16:31;11.75;;;9.50;;
15194;SDS011;7698;42.478;23.756;2022-08-25T00:19:00;16.10;;;9.20;;
15194;SDS011;7698;42.478;23.756;2022-08-25T00:21:30;16.42;;;10.00;;
15194;SDS011;7698;42.478;23.756;2022-08-25T00:23:57;15.20;;;10.10;;
15194;SDS011;7698;42.478;23.756;2022-08-25T00:26:27;23.40;;;10.77;;
15194;SDS011;7698;42.478;23.756;2022-08-25T00:28:54;13.43;;;9.50;;
15194;SDS011;7698;42.478;23.756;2022-08-25T00:31:22;16.85;;;9.93;;
15194;SDS011;7698;42.478;23.756;2022-08-25T00:33:49;12.93;;;9.57;;
15194;SDS011;7698;42.478;23.756;2022-08-25T00:36:18;12.63;;;10.07;;
15194;SDS011;7698;42.478;23.756;2022-08-25T00:38:45;12.25;;;8.73;;
15194;SDS011;7698;42.478;23.756;2022-08-25T00:41:15;14.82;;;9.60;;
15194;SDS011;7698;42.478;23.756;2022-08-25T00:43:47;22.50;;;10.23;;
15194;SDS011;7698;42.478;23.756;2022-08-25T00:46:16;18.77;;;10.15;;
15194;SDS011;7698;42.478;23.756;2022-08-25T00:48:48;17.52;;;9.13;;
15194;SDS011;7698;42.478;23.756;2022-08-25T00:51:19;14.52;;;9.43;;
15194;SDS011;7698;42.478;23.756;2022-08-25T00:53:50;16.63;;;9.32;;
15194;SDS011;7698;42.478;23.756;2022-08-25T00:56:17;11.63;;;8.55;;
15194;SDS011;7698;42.478;23.756;2022-08-25T00:58:46;16.88;;;9.85;;
15194;SDS011;7698;42.478;23.756;2022-08-25T01:01:13;16.50;;;9.40;;
15194;SDS011;7698;42.478;23.756;2022-08-25T01:03:39;14.02;;;9.95;;
15194;SDS011;7698;42.478;23.756;2022-08-25T01:06:06;15.00;;;9.48;;
15194;SDS011;7698;42.478;23.756;2022-08-25T01:08:34;12.07;;;8.35;;
15194;SDS011;7698;42.478;23.756;2022-08-25T01:11:02;19.63;;;9.80;;
15194;SDS011;7698;42.478;23.756;2022-08-25T01:13:33;16.38;;;10.02;;
15194;SDS011;7698;42.478;23.756;2022-08-25T01:16:04;15.02;;;10.10;;
15194;SDS011;7698;42.478;23.756;2022-08-25T01:18:41;13.95;;;9.10;;
15194;SDS011;7698;42.478;23.756;2022-08-25T01:21:12;8.68;;;7.78;;
15194;SDS011;7698;42.478;23.756;2022-08-25T01:23:39;14.05;;;8.93;;
15194;SDS011;7698;42.478;23.756;2022-08-25T01:26:08;13.95;;;9.05;;
15194;SDS011;7698;42.478;23.756;2022-08-25T01:28:37;15.55;;;9.68;;
15194;SDS011;7698;42.478;23.756;2022-08-25T01:31:25;15.73;;;9.38;;
15194;SDS011;7698;42.478;23.756;2022-08-25T01:33:53;16.02;;;10.23;;
15194;SDS011;7698;42.478;23.756;2022-08-25T01:36:22;12.40;;;9.50;;
15194;SDS011;7698;42.478;23.756;2022-08-25T01:38:49;11.10;;;9.25;;
15194;SDS011;7698;42.478;23.756;2022-08-25T01:41:16;16.77;;;9.73;;
15194;SDS011;7698;42.478;23.756;2022-08-25T01:43:52;14.38;;;11.68;;
15194;SDS011;7698;42.478;23.756;2022-08-25T01:46:18;19.98;;;18.00;;
15194;SDS011;7698;42.478;23.756;2022-08-25T01:48:45;27.10;;;22.92;;
15194;SDS011;7698;42.478;23.756;2022-08-25T01:51:13;20.48;;;18.58;;
15194;SDS011;7698;42.478;23.756;2022-08-25T01:53:42;23.10;;;20.63;;
15194;SDS011;7698;42.478;23.756;2022-08-25T01:56:10;21.50;;;19.17;;
15194;SDS011;7698;42.478;23.756;2022-08-25T01:58:40;23.83;;;21.38;;
15194;SDS011;7698;42.478;23.756;2022-08-25T02:01:09;23.92;;;19.08;;
15194;SDS011;7698;42.478;23.756;2022-08-25T02:03:40;20.70;;;18.63;;
15194;SDS011;7698;42.478;23.756;2022-08-25T02:06:10;21.15;;;18.98;;
15194;SDS011;7698;42.478;23.756;2022-08-25T02:08:37;20.42;;;18.25;;
15194;SDS011;7698;42.478;23.756;2022-08-25T02:11:06;18.25;;;16.50;;
15194;SDS011;7698;42.478;23.756;2022-08-25T02:13:37;19.30;;;16.27;;
15194;SDS011;7698;42.478;23.756;2022-08-25T02:16:04;16.80;;;15.13;;
15194;SDS011;7698;42.478;23.756;2022-08-25T02:18:31;16.00;;;14.30;;
15194;SDS011;7698;42.478;23.756;2022-08-25T02:20:58;19.52;;;13.02;;
15194;SDS011;7698;42.478;23.756;2022-08-25T02:23:25;15.18;;;13.63;;
15194;SDS011;7698;42.478;23.756;2022-08-25T02:25:53;16.08;;;14.38;;
15194;SDS011;7698;42.478;23.756;2022-08-25T02:28:22;14.85;;;13.05;;
15194;SDS011;7698;42.478;23.756;2022-08-25T02:30:49;14.95;;;12.70;;
15194;SDS011;7698;42.478;23.756;2022-08-25T02:33:17;14.10;;;12.63;;
15194;SDS011;7698;42.478;23.756;2022-08-25T02:35:44;18.80;;;13.15;;
15194;SDS011;7698;42.478;23.756;2022-08-25T02:38:11;14.02;;;12.73;;
15194;SDS011;7698;42.478;23.756;2022-08-25T02:40:37;14.00;;;12.50;;
15194;SDS011;7698;42.478;23.756;2022-08-25T02:43:04;14.30;;;12.73;;
15194;SDS011;7698;42.478;23.756;2022-08-25T02:45:33;19.95;;;14.38;;
15194;SDS011;7698;42.478;23.756;2022-08-25T02:48:01;17.45;;;15.85;;
15194;SDS011;7698;42.478;23.756;2022-08-25T02:50:28;17.10;;;15.48;;
15194;SDS011;7698;42.478;23.756;2022-08-25T02:52:55;26.33;;;18.30;;
15194;SDS011;7698;42.478;23.756;2022-08-25T02:55:22;20.17;;;17.58;;
15194;SDS011;7698;42.478;23.756;2022-08-25T02:57:49;20.05;;;17.83;;
15194;SDS011;7698;42.478;23.756;2022-08-25T03:00:16;18.33;;;16.35;;
15194;SDS011;7698;42.478;23.756;2022-08-25T03:02:44;17.35;;;15.73;;
15194;SDS011;7698;42.478;23.756;2022-08-25T03:05:12;17.50;;;15.50;;
15194;SDS011;7698;42.478;23.756;2022-08-25T03:07:40;17.67;;;15.15;;
15194;SDS011;7698;42.478;23.756;2022-08-25T03:10:08;16.75;;;15.13;;
15194;SDS011;7698;42.478;23.756;2022-08-25T03:12:37;16.75;;;14.60;;
15194;SDS011;7698;42.478;23.756;2022-08-25T03:15:06;16.80;;;15.10;;
15194;SDS011;7698;42.478;23.756;2022-08-25T03:17:33;16.38;;;14.05;;
15194;SDS011;7698;42.478;23.756;2022-08-25T03:20:02;15.68;;;13.90;;
15194;SDS011;7698;42.478;23.756;2022-08-25T03:22:30;14.25;;;12.82;;
15194;SDS011;7698;42.478;23.756;2022-08-25T03:24:57;16.67;;;14.27;;
15194;SDS011;7698;42.478;23.756;2022-08-25T03:27:44;17.67;;;13.73;;
15194;SDS011;7698;42.478;23.756;2022-08-25T03:30:10;19.70;;;13.60;;
15194;SDS011;7698;42.478;23.756;2022-08-25T03:32:38;13.40;;;12.07;;
15194;SDS011;7698;42.478;23.756;2022-08-25T03:35:07;13.73;;;12.30;;
15194;SDS011;7698;42.478;23.756;2022-08-25T03:37:34;16.70;;;12.00;;
15194;SDS011;7698;42.478;23.756;2022-08-25T03:40:02;17.05;;;13.52;;
15194;SDS011;7698;42.478;23.756;2022-08-25T03:42:31;14.15;;;12.35;;
15194;SDS011;7698;42.478;23.756;2022-08-25T03:44:57;22.92;;;14.07;;
15194;SDS011;7698;42.478;23.756;2022-08-25T03:47:24;13.35;;;11.98;;
15194;SDS011;7698;42.478;23.756;2022-08-25T03:49:53;14.27;;;12.40;;
15194;SDS011;7698;42.478;23.756;2022-08-25T03:52:21;17.35;;;12.30;;
15194;SDS011;7698;42.478;23.756;2022-08-25T03:54:48;18.30;;;13.00;;
15194;SDS011;7698;42.478;23.756;2022-08-25T03:57:15;13.98;;;12.50;;
15194;SDS011;7698;42.478;23.756;2022-08-25T03:59:44;16.67;;;13.02;;
15194;SDS011;7698;42.478;23.756;2022-08-25T04:02:11;13.40;;;12.10;;
15194;SDS011;7698;42.478;23.756;2022-08-25T04:04:38;15.23;;;12.85;;
15194;SDS011;7698;42.478;23.756;2022-08-25T04:07:05;14.63;;;12.45;;
15194;SDS011;7698;42.478;23.756;2022-08-25T04:09:34;13.38;;;11.98;;
15194;SDS011;7698;42.478;23.756;2022-08-25T04:12:01;14.77;;;12.85;;
15194;SDS011;7698;42.478;23.756;2022-08-25T04:14:28;14.32;;;12.38;;
15194;SDS011;7698;42.478;23.756;2022-08-25T04:16:55;14.98;;;11.65;;
15194;SDS011;7698;42.478;23.756;2022-08-25T04:19:22;14.73;;;11.70;;
15194;SDS011;7698;42.478;23.756;2022-08-25T04:21:49;12.57;;;11.35;;
15194;SDS011;7698;42.478;23.756;2022-08-25T04:24:17;15.88;;;12.55;;
15194;SDS011;7698;42.478;23.756;2022-08-25T04:26:47;12.07;;;10.88;;
15194;SDS011;7698;42.478;23.756;2022-08-25T04:29:17;16.42;;;12.43;;
15194;SDS011;7698;42.478;23.756;2022-08-25T04:31:46;14.90;;;10.88;;
15194;SDS011;7698;42.478;23.756;2022-08-25T04:34:14;17.42;;;11.40;;
15194;SDS011;7698;42.478;23.756;2022-08-25T04:36:41;13.35;;;11.98;;
15194;SDS011;7698;42.478;23.756;2022-08-25T04:39:08;12.07;;;10.85;;
15194;SDS011;7698;42.478;23.756;2022-08-25T04:41:35;14.93;;;11.10;;
15194;SDS011;7698;42.478;23.756;2022-08-25T04:44:04;13.13;;;10.25;;
15194;SDS011;7698;42.478;23.756;2022-08-25T04:46:32;12.55;;;11.25;;
15194;SDS011;7698;42.478;23.756;2022-08-25T04:49:01;15.70;;;10.25;;
15194;SDS011;7698;42.478;23.756;2022-08-25T04:51:29;14.35;;;10.82;;
15194;SDS011;7698;42.478;23.756;2022-08-25T04:54:01;13.02;;;11.20;;
15194;SDS011;7698;42.478;23.756;2022-08-25T04:56:30;14.18;;;9.98;;
15194;SDS011;7698;42.478;23.756;2022-08-25T04:59:00;16.60;;;11.52;;
15194;SDS011;7698;42.478;23.756;2022-08-25T05:01:30;17.02;;;11.02;;
15194;SDS011;7698;42.478;23.756;2022-08-25T05:03:57;11.63;;;10.10;;
15194;SDS011;7698;42.478;23.756;2022-08-25T05:06:26;15.77;;;9.90;;
15194;SDS011;7698;42.478;23.756;2022-08-25T05:08:54;15.13;;;10.82;;
15194;SDS011;7698;42.478;23.756;2022-08-25T05:11:21;23.77;;;10.13;;
15194;SDS011;7698;42.478;23.756;2022-08-25T05:13:49;11.63;;;9.98;;
15194;SDS011;7698;42.478;23.756;2022-08-25T05:16:17;19.38;;;11.10;;
15194;SDS011;7698;42.478;23.756;2022-08-25T05:18:47;14.98;;;9.73;;
15194;SDS011;7698;42.478;23.756;2022-08-25T05:21:15;18.13;;;10.05;;
15194;SDS011;7698;42.478;23.756;2022-08-25T05:23:44;16.98;;;9.13;;
15194;SDS011;7698;42.478;23.756;2022-08-25T05:26:12;13.55;;;9.48;;
15194;SDS011;7698;42.478;23.756;2022-08-25T05:28:40;13.35;;;9.27;;
15194;SDS011;7698;42.478;23.756;2022-08-25T05:31:07;12.07;;;9.07;;
15194;SDS011;7698;42.478;23.756;2022-08-25T05:33:36;17.20;;;10.10;;
15194;SDS011;7698;42.478;23.756;2022-08-25T05:36:06;10.88;;;9.23;;
15194;SDS011;7698;42.478;23.756;2022-08-25T05:38:34;10.30;;;8.82;;
15194;SDS011;7698;42.478;23.756;2022-08-25T05:41:03;12.63;;;9.13;;
15194;SDS011;7698;42.478;23.756;2022-08-25T05:43:34;12.93;;;9.13;;
15194;SDS011;7698;42.478;23.756;2022-08-25T05:46:02;15.90;;;8.90;;
15194;SDS011;7698;42.478;23.756;2022-08-25T05:48:29;15.38;;;9.48;;
15194;SDS011;7698;42.478;23.756;2022-08-25T05:50:57;17.92;;;9.45;;
15194;SDS011;7698;42.478;23.756;2022-08-25T05:53:26;9.85;;;8.85;;
15194;SDS011;7698;42.478;23.756;2022-08-25T05:55:54;12.48;;;8.70;;
15194;SDS011;7698;42.478;23.756;2022-08-25T05:58:23;9.32;;;8.20;;
15194;SDS011;7698;42.478;23.756;2022-08-25T06:00:52;15.90;;;8.55;;
15194;SDS011;7698;42.478;23.756;2022-08-25T06:03:19;15.30;;;8.23;;
15194;SDS011;7698;42.478;23.756;2022-08-25T06:05:45;12.18;;;8.07;;
15194;SDS011;7698;42.478;23.756;2022-08-25T06:08:12;15.38;;;7.80;;
15194;SDS011;7698;42.478;23.756;2022-08-25T06:10:41;11.70;;;7.85;;
15194;SDS011;7698;42.478;23.756;2022-08-25T06:13:08;15.10;;;7.97;;
15194;SDS011;7698;42.478;23.756;2022-08-25T06:15:35;12.32;;;7.03;;
15194;SDS011;7698;42.478;23.756;2022-08-25T06:18:02;12.57;;;7.47;;
15194;SDS011;7698;42.478;23.756;2022-08-25T06:20:30;20.20;;;7.97;;
15194;SDS011;7698;42.478;23.756;2022-08-25T06:22:57;11.18;;;6.72;;
15194;SDS011;7698;42.478;23.756;2022-08-25T06:25:25;12.38;;;7.78;;
15194;SDS011;7698;42.478;23.756;2022-08-25T06:27:53;14.10;;;7.50;;
15194;SDS011;7698;42.478;23.756;2022-08-25T06:30:21;12.00;;;8.00;;
15194;SDS011;7698;42.478;23.756;2022-08-25T06:32:49;10.38;;;7.65;;
15194;SDS011;7698;42.478;23.756;2022-08-25T06:35:16;12.20;;;7.38;;
15194;SDS011;7698;42.478;23.756;2022-08-25T06:37:45;14.13;;;8.40;;
15194;SDS011;7698;42.478;23.756;2022-08-25T06:40:13;12.27;;;7.13;;
15194;SDS011;7698;42.478;23.756;2022-08-25T06:42:40;12.57;;;7.40;;
15194;SDS011;7698;42.478;23.756;2022-08-25T06:45:09;12.63;;;7.57;;
15194;SDS011;7698;42.478;23.756;2022-08-25T06:47:36;15.05;;;7.43;;
15194;SDS011;7698;42.478;23.756;2022-08-25T06:50:03;13.27;;;7.30;;
15194;SDS011;7698;42.478;23.756;2022-08-25T06:52:30;11.18;;;7.07;;
15194;SDS011;7698;42.478;23.756;2022-08-25T06:54:57;11.77;;;6.55;;
15194;SDS011;7698;42.478;23.756;2022-08-25T06:57:24;13.18;;;7.47;;
15194;SDS011;7698;42.478;23.756;2022-08-25T06:59:51;15.25;;;7.00;;
15194;SDS011;7698;42.478;23.756;2022-08-25T07:02:19;13.57;;;7.43;;
15194;SDS011;7698;42.478;23.756;2022-08-25T07:04:46;16.20;;;7.90;;
15194;SDS011;7698;42.478;23.756;2022-08-25T07:07:13;12.38;;;7.20;;
15194;SDS011;7698;42.478;23.756;2022-08-25T07:09:40;12.05;;;6.32;;
15194;SDS011;7698;42.478;23.756;2022-08-25T07:12:07;16.80;;;7.10;;
15194;SDS011;7698;42.478;23.756;2022-08-25T07:14:34;11.50;;;5.95;;
15194;SDS011;7698;42.478;23.756;2022-08-25T07:17:01;12.05;;;6.55;;
15194;SDS011;7698;42.478;23.756;2022-08-25T07:19:29;11.63;;;6.68;;
15194;SDS011;7698;42.478;23.756;2022-08-25T07:21:56;13.02;;;6.95;;
15194;SDS011;7698;42.478;23.756;2022-08-25T07:24:23;15.00;;;7.03;;
15194;SDS011;7698;42.478;23.756;2022-08-25T07:26:50;16.83;;;6.80;;
15194;SDS011;7698;42.478;23.756;2022-08-25T07:29:18;13.50;;;6.68;;
15194;SDS011;7698;42.478;23.756;2022-08-25T07:31:46;11.30;;;6.43;;
15194;SDS011;7698;42.478;23.756;2022-08-25T07:34:13;10.52;;;5.97;;
15194;SDS011;7698;42.478;23.756;2022-08-25T07:36:59;19.20;;;6.53;;
15194;SDS011;7698;42.478;23.756;2022-08-25T07:39:29;22.08;;;7.28;;
15194;SDS011;7698;42.478;23.756;2022-08-25T07:41:58;15.85;;;6.72;;
15194;SDS011;7698;42.478;23.756;2022-08-25T07:44:25;14.15;;;6.40;;
15194;SDS011;7698;42.478;23.756;2022-08-25T07:46:53;10.57;;;6.13;;
15194;SDS011;7698;42.478;23.756;2022-08-25T07:49:20;11.00;;;7.28;;
15194;SDS011;7698;42.478;23.756;2022-08-25T07:51:48;15.00;;;6.53;;
15194;SDS011;7698;42.478;23.756;2022-08-25T07:54:17;18.02;;;6.20;;
15194;SDS011;7698;42.478;23.756;2022-08-25T07:56:44;17.60;;;6.70;;
15194;SDS011;7698;42.478;23.756;2022-08-25T07:59:11;10.10;;;6.05;;
15194;SDS011;7698;42.478;23.756;2022-08-25T08:01:38;23.38;;;7.68;;
15194;SDS011;7698;42.478;23.756;2022-08-25T08:04:05;16.13;;;6.63;;
15194;SDS011;7698;42.478;23.756;2022-08-25T08:06:32;14.75;;;6.70;;
15194;SDS011;7698;42.478;23.756;2022-08-25T08:08:59;23.25;;;7.05;;
15194;SDS011;7698;42.478;23.756;2022-08-25T08:11:28;17.67;;;6.65;;
15194;SDS011;7698;42.478;23.756;2022-08-25T08:13:57;25.20;;;8.07;;
15194;SDS011;7698;42.478;23.756;2022-08-25T08:16:27;17.73;;;6.57;;
15194;SDS011;7698;42.478;23.756;2022-08-25T08:18:55;16.38;;;6.28;;
15194;SDS011;7698;42.478;23.756;2022-08-25T08:21:23;17.60;;;6.10;;
15194;SDS011;7698;42.478;23.756;2022-08-25T08:23:52;17.85;;;6.20;;
15194;SDS011;7698;42.478;23.756;2022-08-25T08:26:20;22.52;;;6.68;;
15194;SDS011;7698;42.478;23.756;2022-08-25T08:28:49;25.48;;;6.40;;
15194;SDS011;7698;42.478;23.756;2022-08-25T08:31:16;23.45;;;6.75;;
15194;SDS011;7698;42.478;23.756;2022-08-25T08:33:44;16.55;;;6.70;;
15194;SDS011;7698;42.478;23.756;2022-08-25T08:36:11;18.17;;;5.97;;
15194;SDS011;7698;42.478;23.756;2022-08-25T08:38:39;23.38;;;6.70;;
15194;SDS011;7698;42.478;23.756;2022-08-25T08:41:13;20.15;;;5.65;;
15194;SDS011;7698;42.478;23.756;2022-08-25T08:44:14;23.33;;;6.20;;
15194;SDS011;7698;42.478;23.756;2022-08-25T08:46:48;17.10;;;6.05;;
15194;SDS011;7698;42.478;23.756;2022-08-25T08:49:25;18.27;;;5.85;;
15194;SDS011;7698;42.478;23.756;2022-08-25T08:52:01;21.38;;;6.20;;
15194;SDS011;7698;42.478;23.756;2022-08-25T08:54:34;15.90;;;5.68;;
15194;SDS011;7698;42.478;23.756;2022-08-25T08:57:07;23.20;;;6.30;;
15194;SDS011;7698;42.478;23.756;2022-08-25T08:59:40;19.42;;;6.32;;
15194;SDS011;7698;42.478;23.756;2022-08-25T09:02:14;18.33;;;5.60;;
15194;SDS011;7698;42.478;23.756;2022-08-25T09:04:49;20.60;;;6.15;;
15194;SDS011;7698;42.478;23.756;2022-08-25T09:07:21;19.35;;;5.65;;
15194;SDS011;7698;42.478;23.756;2022-08-25T09:09:52;12.88;;;4.82;;
15194;SDS011;7698;42.478;23.756;2022-08-25T09:12:21;23.75;;;5.75;;
15194;SDS011;7698;42.478;23.756;2022-08-25T09:14:59;17.38;;;5.18;;
15194;SDS011;7698;42.478;23.756;2022-08-25T09:17:43;21.27;;;5.90;;
15194;SDS011;7698;42.478;23.756;2022-08-25T09:20:34;24.77;;;6.25;;
15194;SDS011;7698;42.478;23.756;2022-08-25T09:23:15;21.08;;;5.78;;
15194;SDS011;7698;42.478;23.756;2022-08-25T09:25:52;23.80;;;6.70;;
15194;SDS011;7698;42.478;23.756;2022-08-25T09:28:27;15.38;;;4.78;;
15194;SDS011;7698;42.478;23.756;2022-08-25T09:30:59;19.05;;;5.47;;
15194;SDS011;7698;42.478;23.756;2022-08-25T09:33:28;15.75;;;4.35;;
15194;SDS011;7698;42.478;23.756;2022-08-25T09:35:57;19.10;;;5.38;;
15194;SDS011;7698;42.478;23.756;2022-08-25T09:38:26;16.05;;;5.38;;
15194;SDS011;7698;42.478;23.756;2022-08-25T09:40:57;19.33;;;5.00;;
15194;SDS011;7698;42.478;23.756;2022-08-25T09:43:28;18.45;;;4.80;;
15194;SDS011;7698;42.478;23.756;2022-08-25T09:46:00;19.90;;;5.40;;
15194;SDS011;7698;42.478;23.756;2022-08-25T09:48:29;20.52;;;4.65;;
15194;SDS011;7698;42.478;23.756;2022-08-25T09:51:19;16.77;;;4.85;;
15194;SDS011;7698;42.478;23.756;2022-08-25T09:53:51;15.93;;;4.90;;
15194;SDS011;7698;42.478;23.756;2022-08-25T09:56:21;12.60;;;4.22;;
15194;SDS011;7698;42.478;23.756;2022-08-25T09:58:51;15.35;;;4.90;;
15194;SDS011;7698;42.478;23.756;2022-08-25T10:01:20;18.40;;;4.60;;
15194;SDS011;7698;42.478;23.756;2022-08-25T10:03:52;16.17;;;4.35;;
15194;SDS011;7698;42.478;23.756;2022-08-25T10:06:28;22.50;;;5.63;;
15194;SDS011;7698;42.478;23.756;2022-08-25T10:09:01;15.85;;;4.50;;
15194;SDS011;7698;42.478;23.756;2022-08-25T10:11:32;13.50;;;4.03;;
15194;SDS011;7698;42.478;23.756;2022-08-25T10:14:07;18.38;;;4.32;;
15194;SDS011;7698;42.478;23.756;2022-08-25T10:16:44;18.95;;;5.35;;
15194;SDS011;7698;42.478;23.756;2022-08-25T10:19:13;13.40;;;4.55;;
15194;SDS011;7698;42.478;23.756;2022-08-25T10:22:00;18.98;;;4.82;;
15194;SDS011;7698;42.478;23.756;2022-08-25T10:24:29;21.13;;;5.18;;
15194;SDS011;7698;42.478;23.756;2022-08-25T10:26:57;20.70;;;4.93;;
15194;SDS011;7698;42.478;23.756;2022-08-25T10:29:33;24.30;;;5.20;;
15194;SDS011;7698;42.478;23.756;2022-08-25T10:32:17;18.52;;;5.20;;
15194;SDS011;7698;42.478;23.756;2022-08-25T10:34:46;23.00;;;5.00;;
15194;SDS011;7698;42.478;23.756;2022-08-25T10:37:19;23.45;;;5.13;;
15194;SDS011;7698;42.478;23.756;2022-08-25T10:39:56;21.65;;;4.70;;
15194;SDS011;7698;42.478;23.756;2022-08-25T10:42:33;19.30;;;4.18;;
15194;SDS011;7698;42.478;23.756;2022-08-25T10:45:15;17.52;;;5.18;;
15194;SDS011;7698;42.478;23.756;2022-08-25T10:48:17;19.70;;;5.30;;
15194;SDS011;7698;42.478;23.756;2022-08-25T10:50:54;16.00;;;4.00;;
15194;SDS011;7698;42.478;23.756;2022-08-25T10:53:26;26.73;;;5.05;;
15194;SDS011;7698;42.478;23.756;2022-08-25T10:56:00;18.88;;;5.22;;
15194;SDS011;7698;42.478;23.756;2022-08-25T10:58:41;20.40;;;5.07;;
15194;SDS011;7698;42.478;23.756;2022-08-25T11:01:18;16.95;;;4.55;;
15194;SDS011;7698;42.478;23.756;2022-08-25T11:03:57;17.63;;;4.28;;
15194;SDS011;7698;42.478;23.756;2022-08-25T11:06:31;14.68;;;4.25;;
15194;SDS011;7698;42.478;23.756;2022-08-25T11:09:05;17.15;;;4.65;;
15194;SDS011;7698;42.478;23.756;2022-08-25T11:11:36;17.38;;;5.03;;
15194;SDS011;7698;42.478;23.756;2022-08-25T11:14:08;13.02;;;4.47;;
15194;SDS011;7698;42.478;23.756;2022-08-25T11:16:41;13.43;;;4.30;;
15194;SDS011;7698;42.478;23.756;2022-08-25T11:19:16;16.10;;;4.18;;
15194;SDS011;7698;42.478;23.756;2022-08-25T11:21:48;14.30;;;4.72;;
15194;SDS011;7698;42.478;23.756;2022-08-25T11:24:25;18.00;;;3.80;;
15194;SDS011;7698;42.478;23.756;2022-08-25T11:27:00;20.40;;;5.20;;
15194;SDS011;7698;42.478;23.756;2022-08-25T11:29:30;17.55;;;4.40;;
15194;SDS011;7698;42.478;23.756;2022-08-25T11:32:01;20.05;;;4.57;;
15194;SDS011;7698;42.478;23.756;2022-08-25T11:34:31;12.80;;;4.75;;
15194;SDS011;7698;42.478;23.756;2022-08-25T11:37:02;17.70;;;4.07;;
15194;SDS011;7698;42.478;23.756;2022-08-25T11:39:41;15.32;;;3.72;;
15194;SDS011;7698;42.478;23.756;2022-08-25T11:42:31;19.15;;;4.38;;
15194;SDS011;7698;42.478;23.756;2022-08-25T11:45:11;14.93;;;3.88;;
15194;SDS011;7698;42.478;23.756;2022-08-25T11:47:53;15.05;;;4.30;;
15194;SDS011;7698;42.478;23.756;2022-08-25T11:50:31;17.23;;;4.32;;
15194;SDS011;7698;42.478;23.756;2022-08-25T11:53:02;19.30;;;4.32;;
15194;SDS011;7698;42.478;23.756;2022-08-25T11:55:46;16.30;;;4.90;;
15194;SDS011;7698;42.478;23.756;2022-08-25T11:58:29;12.65;;;4.03;;
15194;SDS011;7698;42.478;23.756;2022-08-25T12:01:00;13.65;;;4.22;;
15194;SDS011;7698;42.478;23.756;2022-08-25T12:06:22;17.08;;;4.18;;
15194;SDS011;7698;42.478;23.756;2022-08-25T12:11:54;16.33;;;4.00;;
15194;SDS011;7698;42.478;23.756;2022-08-25T12:14:41;11.65;;;3.92;;
15194;SDS011;7698;42.478;23.756;2022-08-25T12:17:22;15.88;;;4.65;;
15194;SDS011;7698;42.478;23.756;2022-08-25T12:19:56;14.07;;;3.85;;
15194;SDS011;7698;42.478;23.756;2022-08-25T12:25:26;14.30;;;3.75;;
15194;SDS011;7698;42.478;23.756;2022-08-25T12:28:02;19.27;;;4.85;;
15194;SDS011;7698;42.478;23.756;2022-08-25T12:30:38;16.83;;;4.25;;
15194;SDS011;7698;42.478;23.756;2022-08-25T12:33:12;17.50;;;3.80;;
15194;SDS011;7698;42.478;23.756;2022-08-25T12:35:51;22.02;;;3.95;;
15194;SDS011;7698;42.478;23.756;2022-08-25T12:38:27;16.58;;;4.22;;
15194;SDS011;7698;42.478;23.756;2022-08-25T12:40:59;15.82;;;4.28;;
15194;SDS011;7698;42.478;23.756;2022-08-25T12:43:30;10.50;;;3.65;;
15194;SDS011;7698;42.478;23.756;2022-08-25T12:49:03;10.60;;;3.88;;
15194;SDS011;7698;42.478;23.756;2022-08-25T12:51:45;19.27;;;4.13;;
15194;SDS011;7698;42.478;23.756;2022-08-25T12:54:21;14.50;;;3.70;;
15194;SDS011;7698;42.478;23.756;2022-08-25T12:56:55;15.27;;;5.28;;
15194;SDS011;7698;42.478;23.756;2022-08-25T12:59:31;17.13;;;4.45;;
15194;SDS011;7698;42.478;23.756;2022-08-25T13:05:38;18.30;;;4.35;;
15194;SDS011;7698;42.478;23.756;2022-08-25T13:08:19;13.98;;;3.97;;
15194;SDS011;7698;42.478;23.756;2022-08-25T13:10:59;10.55;;;3.70;;
15194;SDS011;7698;42.478;23.756;2022-08-25T13:13:36;10.27;;;4.35;;
15194;SDS011;7698;42.478;23.756;2022-08-25T13:16:14;16.63;;;4.28;;
15194;SDS011;7698;42.478;23.756;2022-08-25T13:18:43;10.93;;;3.75;;
15194;SDS011;7698;42.478;23.756;2022-08-25T13:21:12;10.43;;;4.53;;
15194;SDS011;7698;42.478;23.756;2022-08-25T13:23:43;15.07;;;3.97;;
15194;SDS011;7698;42.478;23.756;2022-08-25T13:26:15;18.83;;;4.25;;
15194;SDS011;7698;42.478;23.756;2022-08-25T13:28:49;16.67;;;3.97;;
15194;SDS011;7698;42.478;23.756;2022-08-25T13:31:20;13.77;;;4.20;;
15194;SDS011;7698;42.478;23.756;2022-08-25T13:33:52;14.18;;;4.15;;
15194;SDS011;7698;42.478;23.756;2022-08-25T13:36:22;14.02;;;4.30;;
15194;SDS011;7698;42.478;23.756;2022-08-25T13:39:13;13.15;;;4.03;;
15194;SDS011;7698;42.478;23.756;2022-08-25T13:41:46;18.30;;;4.15;;
15194;SDS011;7698;42.478;23.756;2022-08-25T13:44:15;11.07;;;3.88;;
15194;SDS011;7698;42.478;23.756;2022-08-25T13:46:43;17.05;;;4.50;;
15194;SDS011;7698;42.478;23.756;2022-08-25T13:49:11;15.63;;;3.70;;
15194;SDS011;7698;42.478;23.756;2022-08-25T13:51:48;10.93;;;3.78;;
15194;SDS011;7698;42.478;23.756;2022-08-25T13:54:23;10.80;;;4.68;;
15194;SDS011;7698;42.478;23.756;2022-08-25T13:56:52;12.32;;;4.72;;
15194;SDS011;7698;42.478;23.756;2022-08-25T13:59:21;9.10;;;4.55;;
15194;SDS011;7698;42.478;23.756;2022-08-25T14:01:51;14.07;;;4.60;;
15194;SDS011;7698;42.478;23.756;2022-08-25T14:04:22;17.58;;;4.75;;
15194;SDS011;7698;42.478;23.756;2022-08-25T14:07:07;14.23;;;4.60;;
15194;SDS011;7698;42.478;23.756;2022-08-25T14:09:40;15.65;;;4.43;;
15194;SDS011;7698;42.478;23.756;2022-08-25T14:12:26;8.07;;;3.83;;
15194;SDS011;7698;42.478;23.756;2022-08-25T14:14:56;13.73;;;4.55;;
15194;SDS011;7698;42.478;23.756;2022-08-25T14:17:27;17.77;;;4.25;;
15194;SDS011;7698;42.478;23.756;2022-08-25T14:19:55;9.73;;;3.42;;
15194;SDS011;7698;42.478;23.756;2022-08-25T14:22:22;12.93;;;4.53;;
15194;SDS011;7698;42.478;23.756;2022-08-25T14:24:50;13.57;;;4.00;;
15194;SDS011;7698;42.478;23.756;2022-08-25T14:27:18;10.30;;;4.15;;
15194;SDS011;7698;42.478;23.756;2022-08-25T14:29:46;11.55;;;4.57;;
15194;SDS011;7698;42.478;23.756;2022-08-25T14:34:41;11.63;;;5.28;;
15194;SDS011;7698;42.478;23.756;2022-08-25T14:37:10;11.38;;;4.90;;
15194;SDS011;7698;42.478;23.756;2022-08-25T14:39:39;15.52;;;4.47;;
15194;SDS011;7698;42.478;23.756;2022-08-25T14:42:06;12.88;;;4.47;;
15194;SDS011;7698;42.478;23.756;2022-08-25T14:44:33;11.82;;;4.43;;
15194;SDS011;7698;42.478;23.756;2022-08-25T14:47:02;8.43;;;4.15;;
15194;SDS011;7698;42.478;23.756;2022-08-25T14:49:32;11.52;;;4.05;;
15194;SDS011;7698;42.478;23.756;2022-08-25T14:52:03;6.90;;;3.83;;
15194;SDS011;7698;42.478;23.756;2022-08-25T14:54:34;14.35;;;4.43;;
15194;SDS011;7698;42.478;23.756;2022-08-25T14:57:01;17.02;;;5.28;;
15194;SDS011;7698;42.478;23.756;2022-08-25T14:59:28;11.02;;;4.05;;
15194;SDS011;7698;42.478;23.756;2022-08-25T15:01:56;12.73;;;4.18;;
15194;SDS011;7698;42.478;23.756;2022-08-25T15:04:26;17.90;;;4.70;;
15194;SDS011;7698;42.478;23.756;2022-08-25T15:06:55;12.32;;;4.18;;
15194;SDS011;7698;42.478;23.756;2022-08-25T15:09:24;12.88;;;4.60;;